createdAt,value
2023-01-30T00:06:01.248Z,11.43
2023-01-30T00:11:13.162Z,12.13
2023-01-30T00:16:20.143Z,10.50
2023-01-30T00:21:27.291Z,11.55
2023-01-30T00:26:35.444Z,9.63
2023-01-30T00:31:42.059Z,9.70
2023-01-30T00:37:02.447Z,9.02
2023-01-30T00:42:28.830Z,8.30
2023-01-30T00:47:35.695Z,8.25
2023-01-30T00:52:42.236Z,9.27
2023-01-30T00:57:50.711Z,9.10
2023-01-30T01:02:59.223Z,6.95
2023-01-30T01:08:06.527Z,8.90
2023-01-30T01:13:14.628Z,7.55
2023-01-30T01:18:21.211Z,7.63
2023-01-30T01:23:27.628Z,8.05
2023-01-30T01:28:38.208Z,8.50
2023-01-30T01:33:44.899Z,8.32
2023-01-30T01:38:51.428Z,8.20
2023-01-30T01:44:08.753Z,8.70
2023-01-30T01:49:22.713Z,8.60
2023-01-30T01:54:35.847Z,8.63
2023-01-30T01:59:48.343Z,6.95
2023-01-30T02:05:07.125Z,7.60
2023-01-30T02:10:20.333Z,6.63
2023-01-30T02:15:28.839Z,7.18
2023-01-30T02:20:57.517Z,6.13
2023-01-30T02:26:55.609Z,6.63
2023-01-30T02:32:13.465Z,6.80
2023-01-30T02:37:39.807Z,6.38
2023-01-30T02:42:54.119Z,6.25
2023-01-30T02:53:14.990Z,5.93
2023-01-30T02:58:26.017Z,5.50
2023-01-30T03:04:11.106Z,5.43
2023-01-30T03:09:29.125Z,5.53
2023-01-30T03:14:46.372Z,6.13
2023-01-30T03:19:56.784Z,5.93
2023-01-30T03:25:03.811Z,5.88
2023-01-30T03:30:12.778Z,6.35
2023-01-30T03:35:21.987Z,5.70
2023-01-30T03:40:30.652Z,5.13
2023-01-30T03:45:38.423Z,6.22
2023-01-30T03:50:46.428Z,6.57
2023-01-30T03:55:52.855Z,6.07
2023-01-30T04:01:05.146Z,6.47
2023-01-30T04:06:14.881Z,5.90
2023-01-30T04:11:22.244Z,7.40
2023-01-30T04:16:29.317Z,6.85
2023-01-30T04:21:57.493Z,7.68
2023-01-30T04:27:05.704Z,7.22
2023-01-30T04:32:17.791Z,6.97
2023-01-30T04:37:26.933Z,7.63
2023-01-30T04:42:33.658Z,6.50
2023-01-30T04:47:58.432Z,6.25
2023-01-30T04:53:06.933Z,6.78
2023-01-30T04:58:13.748Z,6.45
2023-01-30T05:03:20.590Z,6.45
2023-01-30T05:08:28.404Z,6.07
2023-01-30T05:13:34.888Z,6.10
2023-01-30T05:18:41.411Z,6.50
2023-01-30T05:23:49.499Z,6.65
2023-01-30T05:28:58.194Z,5.73
2023-01-30T05:34:04.578Z,7.32
2023-01-30T05:39:12.944Z,6.35
2023-01-30T05:44:19.596Z,6.00
2023-01-30T05:49:26.448Z,6.72
2023-01-30T05:54:35.991Z,6.03
2023-01-30T05:59:42.816Z,6.07
2023-01-30T06:04:49.883Z,6.18
2023-01-30T06:09:58.007Z,6.00
2023-01-30T06:15:04.722Z,5.47
2023-01-30T06:20:13.748Z,6.20
2023-01-30T06:25:21.813Z,6.53
2023-01-30T06:30:28.615Z,5.73
2023-01-30T06:35:35.880Z,6.45
2023-01-30T06:40:47.111Z,6.53
2023-01-30T06:45:54.731Z,6.43
2023-01-30T06:51:01.222Z,6.25
2023-01-30T06:56:09.722Z,6.30
2023-01-30T07:01:17.321Z,6.32
2023-01-30T07:06:23.824Z,6.55
2023-01-30T07:11:32.854Z,7.35
2023-01-30T07:21:45.234Z,6.97
2023-01-30T07:26:54.271Z,7.20
2023-01-30T07:32:01.037Z,6.82
2023-01-30T07:37:07.651Z,6.65
2023-01-30T07:42:16.717Z,6.82
2023-01-30T07:52:29.164Z,8.25
2023-01-30T07:57:37.111Z,7.65
2023-01-30T08:02:43.776Z,7.50
2023-01-30T08:07:50.358Z,8.20
2023-01-30T08:12:58.293Z,7.47
2023-01-30T08:18:04.790Z,8.63
2023-01-30T08:23:12.237Z,8.65
2023-01-30T08:28:20.216Z,8.05
2023-01-30T08:33:27.493Z,8.60
2023-01-30T08:38:35.012Z,8.13
2023-01-30T08:43:42.896Z,9.00
2023-01-30T08:48:50.473Z,8.27
2023-01-30T08:53:57.039Z,8.30
2023-01-30T08:59:05.317Z,7.53
2023-01-30T09:04:12.055Z,9.65
2023-01-30T09:09:18.629Z,7.60
2023-01-30T09:14:26.835Z,7.82
2023-01-30T09:19:33.335Z,7.83
2023-01-30T09:24:39.942Z,6.95
2023-01-30T09:29:47.947Z,7.20
2023-01-30T09:34:54.320Z,8.77
2023-01-30T09:40:00.850Z,7.50
2023-01-30T09:45:55.597Z,7.22
2023-01-30T09:51:27.708Z,7.22
2023-01-30T09:56:34.505Z,7.50
2023-01-30T10:01:53.242Z,8.02
2023-01-30T10:12:37.610Z,7.53
2023-01-30T10:18:04.635Z,7.07
2023-01-30T10:23:47.926Z,7.95
2023-01-30T10:29:07.822Z,7.15
2023-01-30T10:39:49.682Z,7.38
2023-01-30T10:45:13.995Z,6.45
2023-01-30T10:50:28.804Z,6.55
2023-01-30T10:55:41.518Z,6.55
2023-01-30T11:00:56.445Z,6.32
2023-01-30T11:06:10.205Z,6.38
2023-01-30T11:11:31.362Z,5.88
2023-01-30T11:16:46.195Z,5.72
2023-01-30T11:21:56.717Z,5.30
2023-01-30T11:27:18.079Z,5.95
2023-01-30T11:32:29.968Z,5.72
2023-01-30T11:37:40.147Z,5.78
2023-01-30T11:42:47.876Z,5.40
2023-01-30T11:48:05.049Z,5.22
2023-01-30T11:53:39.005Z,5.55
2023-01-30T11:58:49.053Z,5.68
2023-01-30T12:03:58.436Z,6.22
2023-01-30T12:09:09.626Z,6.05
2023-01-30T12:14:28.964Z,5.68
2023-01-30T12:19:54.457Z,5.35
2023-01-30T12:25:05.598Z,5.45
2023-01-30T12:30:26.236Z,5.15
2023-01-30T12:35:51.195Z,5.93
2023-01-30T12:41:14.104Z,6.07
2023-01-30T12:46:41.797Z,6.45
2023-01-30T12:52:09.781Z,5.10
2023-01-30T12:57:28.074Z,6.70
2023-01-30T13:02:56.364Z,5.40
2023-01-30T13:08:23.510Z,6.32
2023-01-30T13:13:43.291Z,6.15
2023-01-30T13:18:56.910Z,6.28
2023-01-30T13:24:20.816Z,6.15
2023-01-30T13:29:34.870Z,6.68
2023-01-30T13:34:44.825Z,6.30
2023-01-30T13:39:56.550Z,5.68
2023-01-30T13:45:06.693Z,6.25
2023-01-30T13:50:43.540Z,6.40
2023-01-30T13:55:58.671Z,7.15
2023-01-30T14:01:07.925Z,6.45
2023-01-30T14:06:38.852Z,6.80
2023-01-30T14:11:51.297Z,6.07
2023-01-30T14:17:12.999Z,7.50
2023-01-30T14:22:28.409Z,6.53
2023-01-30T14:27:34.920Z,5.63
2023-01-30T14:32:57.307Z,5.90
2023-01-30T14:38:21.723Z,6.65
2023-01-30T14:43:40.587Z,6.53
2023-01-30T14:54:03.506Z,6.78
2023-01-30T14:59:22.086Z,6.47
2023-01-30T15:04:35.457Z,6.75
2023-01-30T15:09:47.374Z,7.18
2023-01-30T15:15:09.252Z,6.25
2023-01-30T15:20:43.376Z,6.25
2023-01-30T15:26:18.770Z,5.53
2023-01-30T15:31:26.772Z,5.82
2023-01-30T15:36:37.541Z,5.83
2023-01-30T15:41:44.645Z,5.93
2023-01-30T15:47:01.420Z,6.10
2023-01-30T15:52:17.079Z,6.40
2023-01-30T15:57:29.627Z,5.88
2023-01-30T16:02:38.269Z,6.40
2023-01-30T16:07:49.036Z,5.88
2023-01-30T16:12:58.562Z,5.90
2023-01-30T16:18:15.090Z,5.78
2023-01-30T16:23:30.562Z,7.28
2023-01-30T16:28:38.405Z,7.43
2023-01-30T16:33:51.599Z,6.25
2023-01-30T16:39:01.420Z,5.80
2023-01-30T16:44:21.277Z,5.03
2023-01-30T16:49:46.816Z,6.55
2023-01-30T16:55:00.586Z,5.95
2023-01-30T17:00:22.535Z,6.90
2023-01-30T17:05:32.925Z,6.78
2023-01-30T17:11:00.825Z,6.07
2023-01-30T17:16:35.820Z,5.70
2023-01-30T17:21:50.509Z,6.05
2023-01-30T17:27:07.899Z,6.35
2023-01-30T17:32:18.017Z,6.45
2023-01-30T17:37:26.802Z,6.20
2023-01-30T17:42:35.996Z,5.90
2023-01-30T17:47:43.982Z,5.22
2023-01-30T17:52:52.309Z,5.80
2023-01-30T18:03:09.154Z,5.03
2023-01-30T18:08:18.355Z,5.55
2023-01-30T18:13:27.751Z,5.13
2023-01-30T18:18:36.939Z,4.90
2023-01-30T18:23:45.412Z,4.82
2023-01-30T18:28:56.402Z,4.80
2023-01-30T18:34:05.710Z,4.13
2023-01-30T18:39:15.453Z,3.92
2023-01-30T18:44:26.067Z,4.15
2023-01-30T18:49:34.474Z,4.70
2023-01-30T18:54:44.111Z,4.07
2023-01-30T19:05:02.524Z,4.45
2023-01-30T19:10:17.997Z,4.93
2023-01-30T19:15:32.022Z,4.88
2023-01-30T19:20:41.040Z,4.50
2023-01-30T19:26:01.319Z,4.55
2023-01-30T19:31:14.452Z,4.78
2023-01-30T19:36:25.851Z,4.65
2023-01-30T19:41:53.100Z,4.32
2023-01-30T19:47:07.541Z,4.55
2023-01-30T19:52:17.984Z,4.13
2023-01-30T19:57:28.083Z,4.63
2023-01-30T20:02:39.238Z,4.45
2023-01-30T20:07:49.863Z,5.05
2023-01-30T20:12:59.313Z,4.93
2023-01-30T20:18:10.281Z,4.68
2023-01-30T20:23:20.072Z,5.25
2023-01-30T20:28:28.677Z,4.75
2023-01-30T20:33:39.749Z,5.05
2023-01-30T20:38:50.597Z,5.82
2023-01-30T20:44:01.632Z,4.68
2023-01-30T20:49:17.526Z,4.57
2023-01-30T20:54:29.103Z,4.20
2023-01-30T20:59:38.350Z,4.30
2023-01-30T21:04:49.158Z,4.15
2023-01-30T21:09:57.711Z,3.65
2023-01-30T21:15:09.484Z,3.55
2023-01-30T21:20:19.511Z,3.60
2023-01-30T21:25:27.129Z,4.35
2023-01-30T21:30:33.896Z,3.72
2023-01-30T21:35:45.757Z,3.50
2023-01-30T21:41:11.550Z,3.28
2023-01-30T21:46:18.860Z,3.25
2023-01-30T21:51:27.569Z,3.17
2023-01-30T21:56:35.133Z,3.40
2023-01-30T22:01:42.868Z,3.42
2023-01-30T22:06:50.950Z,3.45
2023-01-30T22:11:57.472Z,3.45
2023-01-30T22:17:03.959Z,3.63
2023-01-30T22:22:11.803Z,3.45
2023-01-30T22:27:18.315Z,3.55
2023-01-30T22:32:24.987Z,3.55
2023-01-30T22:37:33.071Z,2.95
2023-01-30T22:42:39.660Z,3.77
2023-01-30T22:47:46.257Z,3.20
2023-01-30T22:52:55.953Z,3.80
2023-01-30T22:58:02.360Z,3.00
2023-01-30T23:03:08.807Z,3.05
2023-01-30T23:08:16.731Z,3.35
2023-01-30T23:13:23.104Z,2.85
2023-01-30T23:18:46.455Z,3.58
2023-01-30T23:23:57.379Z,3.25
2023-01-30T23:29:05.072Z,2.67
2023-01-30T23:34:16.818Z,2.88
2023-01-30T23:39:24.730Z,3.47
2023-01-30T23:44:31.213Z,2.30
2023-01-30T23:49:37.841Z,3.13
2023-01-30T23:54:46.224Z,2.80
2023-01-30T23:59:52.412Z,2.93
